Stations météo

réclame
Mon MeteoGroup
St.Catherine`s Point, Grande-Bretagne (3866): Température de l'air & dewpoint: 29.07.2020 18:00:00 - 04.08.2020 18:00:00 (BST)St.Catherine`s Point, Grande-Bretagne (3866): Vitesse du vent & gusts: 29.07.2020 18:00:00 - 04.08.2020 18:00:00 (BST)St.Catherine`s Point, Grande-Bretagne (3866): Direction du vent: 29.07.2020 18:00:00 - 04.08.2020 18:00:00 (BST)St.Catherine`s Point, Grande-Bretagne (3866): reduced air pressure: 29.07.2020 18:00:00 - 04.08.2020 18:00:00 (BST)St.Catherine`s Point, Grande-Bretagne (3866): Quantités de précipitations: 29.07.2020 18:00:00 - 04.08.2020 18:00:00 (BST)
Date & Time tt [°C] td [°C] ff [km/h] ff [knt] fx [km/h] fx [knt] dd ppp [hPa] rr [mm]
04.08.2020 18:00:00 16,9 12,7 35 19 46 25 WSW 1016,2 0,0
04.08.2020 17:00:00 17,3 12,7 35 19 - - WSW 1016,5 0,0
04.08.2020 16:00:00 17,1 12,2 34 18 - - WSW 1016,8 0,0
04.08.2020 15:00:00 17,1 11,9 29 16 - - WSW 1017,5 0,0
04.08.2020 14:00:00 16,8 10,8 31 17 - - WSW 1017,7 0,0
04.08.2020 13:00:00 16,9 11,0 29 16 - - WSW 1018,0 0,0
04.08.2020 12:00:00 17,6 10,9 29 16 - - W 1018,1 0,0
04.08.2020 11:00:00 17,1 11,0 22 12 - - WSW 1017,9 0,0
04.08.2020 10:00:00 16,9 8,4 9 5 - - W 1018,0 0,0
04.08.2020 09:00:00 16,2 10,0 13 7 - - W 1017,9 0,0
04.08.2020 08:00:00 14,7 8,6 11 6 - - WNW 1017,7 0,0
04.08.2020 07:00:00 13,6 7,7 13 7 - - NW 1017,2 0,0
04.08.2020 06:00:00 12,2 6,4 8 4 - - NW 1017,0 0,0
04.08.2020 05:00:00 13,0 7,2 11 6 - - NW 1017,2 0,0
04.08.2020 04:00:00 14,0 7,0 18 10 - - N 1017,1 0,0
04.08.2020 03:00:00 13,6 7,2 22 12 - - N 1017,2 0,0
04.08.2020 02:00:00 14,8 7,2 21 11 - - N 1017,5 0,0
04.08.2020 01:00:00 15,2 7,5 21 11 - - NNW 1017,9 0,0
04.08.2020 00:00:00 14,6 9,1 15 8 - - NW 1017,9 0,0
03.08.2020 23:00:00 15,5 9,0 15 8 - - NW 1017,7 0,0
03.08.2020 22:00:00 16,7 8,0 15 8 - - NNW 1017,4 0,0
03.08.2020 21:00:00 17,3 7,4 13 7 - - NNW 1016,8 0,0
03.08.2020 20:00:00 17,5 13,0 26 14 - - W 1016,3 0,0
03.08.2020 19:00:00 17,6 13,0 31 17 - - W 1016,1 0,0
03.08.2020 18:00:00 17,5 12,6 31 17 - - W 1016,1 0,0
03.08.2020 17:00:00 18,7 13,1 34 18 - - W 1016,1 0,0
03.08.2020 16:00:00 18,5 13,3 34 18 - - W 1016,2 0,0
03.08.2020 15:00:00 18,7 13,6 31 17 - - WSW 1016,2 0,0
03.08.2020 14:00:00 18,2 12,4 28 15 - - WSW 1016,5 0,0
03.08.2020 13:00:00 18,8 11,7 26 14 - - W 1016,8 0,0
03.08.2020 12:00:00 18,6 12,6 24 13 - - WSW 1016,7 0,0
03.08.2020 11:00:00 18,6 11,1 18 10 - - W 1016,6 0,0
03.08.2020 10:00:00 18,0 9,4 13 7 - - NW 1016,5 0,0
03.08.2020 09:00:00 16,3 9,4 8 4 - - NNW 1016,4 0,0
03.08.2020 08:00:00 14,9 9,3 16 9 - - NNW 1015,9 0,0
03.08.2020 07:00:00 14,0 8,8 18 10 - - NW 1015,7 0,0
03.08.2020 06:00:00 12,7 9,3 18 10 - - NW 1015,7 0,0
03.08.2020 05:00:00 12,7 9,5 13 7 - - WNW 1015,5 0,0
03.08.2020 04:00:00 13,2 10,1 15 8 - - WNW 1015,5 0,0
03.08.2020 03:00:00 14,4 11,1 16 9 - - NW 1015,9 0,0
03.08.2020 02:00:00 14,5 10,4 18 10 - - WNW 1016,0 0,0
03.08.2020 01:00:00 15,1 10,2 18 10 - - NW 1016,1 0,0
03.08.2020 00:00:00 15,4 10,5 15 8 - - NW 1016,2 0,0
02.08.2020 23:00:00 16,0 11,9 15 8 - - NNW 1016,2 0,0
02.08.2020 22:00:00 16,4 13,2 18 10 - - W 1016,1 0,0
02.08.2020 21:00:00 16,4 13,6 24 13 - - W 1016,4 0,0
02.08.2020 20:00:00 16,5 13,7 28 15 - - W 1016,6 0,0
02.08.2020 19:00:00 17,5 13,9 29 16 - - W 1016,7 0,0
02.08.2020 18:00:00 18,1 13,9 31 17 - - W 1016,9 0,0
02.08.2020 17:00:00 18,1 13,3 31 17 46 25 W 1017,2 0,0
02.08.2020 16:00:00 18,0 14,0 37 20 - - WSW 1017,5 0,0
02.08.2020 15:00:00 17,8 13,7 34 18 - - WSW 1017,8 0,0
02.08.2020 14:00:00 17,8 13,6 28 15 - - WSW 1018,0 0,0
02.08.2020 13:00:00 17,5 13,3 29 16 - - WSW 1018,1 0,0
02.08.2020 12:00:00 18,1 13,1 22 12 - - WSW 1018,5 0,0
02.08.2020 11:00:00 17,6 12,8 26 14 - - WSW 1018,6 0,0
02.08.2020 10:00:00 17,6 12,8 24 13 - - W 1018,5 0,0
02.08.2020 09:00:00 16,7 11,0 22 12 - - W 1018,4 0,0
02.08.2020 08:00:00 17,2 12,8 16 9 - - W 1018,1 0,0
02.08.2020 07:00:00 15,5 11,3 16 9 - - W 1018,1 0,0
02.08.2020 06:00:00 15,1 11,6 22 12 - - W 1017,9 0,0
02.08.2020 05:00:00 15,0 11,5 22 12 - - WNW 1017,8 0,0
02.08.2020 04:00:00 15,0 11,0 22 12 - - WNW 1017,7 0,0
02.08.2020 03:00:00 15,3 11,1 26 14 - - W 1017,6 0,0
02.08.2020 02:00:00 15,8 11,0 28 15 - - W 1017,9 0,0
02.08.2020 01:00:00 15,5 10,1 18 10 - - NW 1017,9 0,0
02.08.2020 00:00:00 15,7 9,9 18 10 - - WNW 1017,9 0,0
01.08.2020 23:00:00 16,4 9,6 16 9 - - NW 1017,9 0,0
01.08.2020 22:00:00 16,9 9,3 15 8 - - NW 1017,6 0,0
01.08.2020 21:00:00 17,8 14,6 16 9 - - W 1016,8 0,0
01.08.2020 20:00:00 17,8 14,9 28 15 - - W 1016,4 0,0
01.08.2020 19:00:00 18,0 15,2 31 17 - - W 1016,6 0,0
01.08.2020 18:00:00 17,7 15,1 26 14 - - W 1016,9 0,0
01.08.2020 17:00:00 18,5 15,7 34 18 - - WSW 1017,0 0,0
01.08.2020 16:00:00 18,4 15,6 31 17 - - WSW 1016,9 0,0
01.08.2020 15:00:00 18,6 15,7 31 17 - - WSW 1017,1 0,0
01.08.2020 14:00:00 19,0 16,0 22 12 - - WSW 1017,0 0,0
01.08.2020 13:00:00 18,5 15,6 26 14 - - WSW 1017,1 0,0
01.08.2020 12:00:00 18,6 15,9 24 13 - - W 1017,1 0,0
01.08.2020 11:00:00 18,6 16,5 24 13 - - W 1016,9 0,0
01.08.2020 10:00:00 17,3 16,0 28 15 - - WSW 1016,7 0,0
01.08.2020 09:00:00 16,8 15,5 21 11 - - W 1016,3 0,0
01.08.2020 08:00:00 17,0 15,3 22 12 - - W 1016,0 0,0
01.08.2020 07:00:00 16,6 15,3 22 12 - - W 1015,9 0,0
01.08.2020 06:00:00 16,5 15,2 21 11 - - W 1015,8 0,0
01.08.2020 05:00:00 16,6 14,3 18 10 - - W 1015,4 0,0
01.08.2020 04:00:00 16,9 14,0 24 13 - - W 1014,9 0,0
01.08.2020 03:00:00 17,1 15,9 26 14 - - W 1014,6 0,0
01.08.2020 02:00:00 17,4 16,8 21 11 - - W 1014,4 0,0
01.08.2020 01:00:00 17,1 16,7 21 11 - - W 1014,2 0,0
01.08.2020 00:00:00 16,8 16,4 22 12 - - W 1013,9 0,0
31.07.2020 23:00:00 17,1 16,7 22 12 - - W 1013,5 0,0
31.07.2020 22:00:00 17,2 16,8 26 14 48 26 W 1013,2 0,0
31.07.2020 21:00:00 17,2 16,7 28 15 - - W 1013,0 0,0
31.07.2020 20:00:00 17,2 16,6 31 17 46 25 W 1012,6 0,0
31.07.2020 19:00:00 17,4 16,6 26 14 - - W 1012,7 0,0
31.07.2020 18:00:00 17,4 15,9 28 15 - - W 1012,4 0,0
31.07.2020 17:00:00 18,6 16,4 22 12 - - W 1011,9 0,0
31.07.2020 16:00:00 18,7 16,3 24 13 - - W 1011,6 0,0
31.07.2020 15:00:00 20,5 16,2 18 10 - - W 1011,1 0,0
31.07.2020 14:00:00 21,8 13,7 5 3 - - SSE 1010,3 0,0
31.07.2020 13:00:00 24,8 14,7 13 7 - - E 1010,1 0,0
31.07.2020 12:00:00 25,4 13,6 18 10 - - E 1010,1 0,0
31.07.2020 11:00:00 25,1 14,2 22 12 - - E 1010,3 0,0
31.07.2020 10:00:00 24,6 12,4 26 14 - - E 1010,2 0,0
31.07.2020 09:00:00 23,5 12,8 26 14 - - E 1010,3 0,0
31.07.2020 08:00:00 22,7 12,0 28 15 - - E 1010,3 0,0
31.07.2020 07:00:00 21,8 11,3 26 14 - - E 1010,9 0,0
31.07.2020 06:00:00 20,9 11,4 26 14 - - E 1011,2 0,0
31.07.2020 05:00:00 20,5 11,4 28 15 46 25 E 1011,1 0,0
31.07.2020 04:00:00 20,2 12,1 28 15 - - ENE 1011,9 0,0
31.07.2020 03:00:00 19,9 13,2 28 15 - - ENE 1012,4 0,0
31.07.2020 02:00:00 19,6 13,7 28 15 - - ENE 1013,1 0,0
31.07.2020 01:00:00 19,6 13,6 29 16 - - ENE 1013,8 0,0
31.07.2020 00:00:00 19,8 12,3 28 15 - - ENE 1014,3 0,0
30.07.2020 23:00:00 20,5 10,6 26 14 - - E 1014,2 0,0
30.07.2020 22:00:00 21,2 8,7 24 13 - - ENE 1014,1 0,0
30.07.2020 21:00:00 20,7 7,5 22 12 - - ENE 1014,2 0,0
30.07.2020 20:00:00 20,7 8,8 18 10 - - E 1014,6 0,0
30.07.2020 19:00:00 20,9 11,6 21 11 - - E 1015,2 0,0
30.07.2020 18:00:00 21,6 11,7 22 12 - - E 1015,6 0,0
30.07.2020 17:00:00 21,3 12,6 21 11 - - E 1016,3 0,0
30.07.2020 16:00:00 21,1 14,7 24 13 - - E 1016,9 0,0
30.07.2020 15:00:00 21,1 13,8 24 13 - - E 1017,4 0,0
30.07.2020 14:00:00 21,3 13,4 24 13 - - E 1017,9 0,0
30.07.2020 13:00:00 20,9 12,9 22 12 - - E 1018,6 0,0
30.07.2020 12:00:00 20,5 11,9 21 11 - - E 1019,0 0,0
30.07.2020 11:00:00 19,8 11,1 16 9 - - ESE 1019,2 0,0
30.07.2020 10:00:00 19,1 11,3 15 8 - - E 1019,4 0,0
30.07.2020 09:00:00 17,6 13,0 11 6 - - ESE 1019,5 0,0
30.07.2020 08:00:00 16,7 13,9 9 5 - - SE 1019,2 0,0
30.07.2020 07:00:00 15,4 13,3 5 3 - - S 1019,3 0,0
30.07.2020 06:00:00 13,7 11,7 4 2 - - E 1018,9 0,0
30.07.2020 05:00:00 14,2 12,1 2 1 - - N 1019,2 0,0
30.07.2020 04:00:00 14,1 11,7 4 2 - - NNW 1019,3 0,0
30.07.2020 03:00:00 14,2 11,9 5 3 - - NNW 1019,5 0,0
30.07.2020 02:00:00 14,1 11,4 5 3 - - WNW 1019,8 0,0
30.07.2020 01:00:00 15,2 11,7 11 6 - - W 1020,1 0,0
30.07.2020 00:00:00 15,2 11,4 11 6 - - W 1020,2 0,0
29.07.2020 23:00:00 15,2 11,3 13 7 - - W 1020,3 0,0
29.07.2020 22:00:00 15,4 11,2 15 8 - - W 1020,5 0,0
29.07.2020 21:00:00 15,5 10,6 18 10 - - W 1020,3 0,0
29.07.2020 20:00:00 16,1 10,1 18 10 - - W 1020,2 0,0
29.07.2020 19:00:00 16,2 10,1 16 9 - - W 1020,2 0,0
29.07.2020 18:00:00 17,0 10,4 16 9 - - W 1020,5 0,0

tt = Température de l'air
td = dewpoint
ff = Vitesse du vent
fx = gusts
dd = Direction du vent
ppp = reduced air pressure
rr = Quantités de précipitations

stations d'obs. à proximité